sensor_id;sensor_type;location;lat;lon;timestamp;pressure;altitude;pressure_sealevel;temperature;humidity
6020;BME280;3038;51.122;6.840;2023-08-06T00:02:00;100086.91;;;16.14;92.34
6020;BME280;3038;51.122;6.840;2023-08-06T00:04:25;100084.66;;;16.11;92.28
6020;BME280;3038;51.122;6.840;2023-08-06T00:06:50;100083.84;;;16.04;92.62
6020;BME280;3038;51.122;6.840;2023-08-06T00:09:16;100087.38;;;15.98;92.08
6020;BME280;3038;51.122;6.840;2023-08-06T00:11:41;100083.06;;;15.97;92.56
6020;BME280;3038;51.122;6.840;2023-08-06T00:14:09;100076.25;;;15.94;91.92
6020;BME280;3038;51.122;6.840;2023-08-06T00:16:34;100072.97;;;15.92;92.26
6020;BME280;3038;51.122;6.840;2023-08-06T00:18:59;100067.44;;;15.87;91.85
6020;BME280;3038;51.122;6.840;2023-08-06T00:21:25;100069.47;;;15.85;92.16
6020;BME280;3038;51.122;6.840;2023-08-06T00:23:50;100066.63;;;15.80;92.41
6020;BME280;3038;51.122;6.840;2023-08-06T00:26:17;100065.38;;;15.76;93.01
6020;BME280;3038;51.122;6.840;2023-08-06T00:28:42;100069.53;;;15.72;92.98
6020;BME280;3038;51.122;6.840;2023-08-06T00:31:08;100070.16;;;15.67;93.32
6020;BME280;3038;51.122;6.840;2023-08-06T00:33:33;100068.91;;;15.63;93.49
6020;BME280;3038;51.122;6.840;2023-08-06T00:35:58;100068.09;;;15.62;93.56
6020;BME280;3038;51.122;6.840;2023-08-06T00:38:24;100070.13;;;15.60;93.69
6020;BME280;3038;51.122;6.840;2023-08-06T00:40:49;100067.66;;;15.59;93.65
6020;BME280;3038;51.122;6.840;2023-08-06T00:43:14;100073.84;;;15.59;93.63
6020;BME280;3038;51.122;6.840;2023-08-06T00:45:40;100076.28;;;15.61;93.72
6020;BME280;3038;51.122;6.840;2023-08-06T00:48:05;100073.44;;;15.69;93.66
6020;BME280;3038;51.122;6.840;2023-08-06T00:50:32;100077.13;;;15.75;93.48
6020;BME280;3038;51.122;6.840;2023-08-06T00:52:57;100069.72;;;15.77;93.25
6020;BME280;3038;51.122;6.840;2023-08-06T00:55:23;100072.38;;;15.83;93.16
6020;BME280;3038;51.122;6.840;2023-08-06T00:57:49;100070.94;;;15.87;93.25
6020;BME280;3038;51.122;6.840;2023-08-06T01:00:16;100064.72;;;15.93;92.79
6020;BME280;3038;51.122;6.840;2023-08-06T01:02:42;100071.13;;;15.92;92.80
6020;BME280;3038;51.122;6.840;2023-08-06T01:05:07;100064.31;;;15.97;93.16
6020;BME280;3038;51.122;6.840;2023-08-06T01:12:51;100065.13;;;15.97;92.62
6020;BME280;3038;51.122;6.840;2023-08-06T01:15:25;100061.00;;;15.94;92.91
6020;BME280;3038;51.122;6.840;2023-08-06T01:17:53;100057.97;;;15.91;92.72
6020;BME280;3038;51.122;6.840;2023-08-06T01:20:18;100046.63;;;15.89;93.37
6020;BME280;3038;51.122;6.840;2023-08-06T01:22:44;100055.47;;;15.89;93.10
6020;BME280;3038;51.122;6.840;2023-08-06T01:25:09;100050.94;;;15.90;93.12
6020;BME280;3038;51.122;6.840;2023-08-06T01:27:44;100056.91;;;15.92;92.79
6020;BME280;3038;51.122;6.840;2023-08-06T01:30:27;100054.25;;;15.92;92.74
6020;BME280;3038;51.122;6.840;2023-08-06T01:32:58;100056.91;;;15.92;92.91
6020;BME280;3038;51.122;6.840;2023-08-06T01:35:25;100056.69;;;15.93;92.94
6020;BME280;3038;51.122;6.840;2023-08-06T01:37:51;100050.75;;;15.91;92.94
6020;BME280;3038;51.122;6.840;2023-08-06T01:40:17;100042.91;;;15.90;93.48
6020;BME280;3038;51.122;6.840;2023-08-06T01:42:42;100043.34;;;15.87;93.34
6020;BME280;3038;51.122;6.840;2023-08-06T01:45:08;100039.22;;;15.91;93.62
6020;BME280;3038;51.122;6.840;2023-08-06T01:47:35;100032.41;;;15.88;93.74
6020;BME280;3038;51.122;6.840;2023-08-06T01:50:00;100033.44;;;15.87;93.66
6020;BME280;3038;51.122;6.840;2023-08-06T01:52:26;100038.81;;;15.87;93.49
6020;BME280;3038;51.122;6.840;2023-08-06T01:54:52;100035.13;;;15.82;93.82
6020;BME280;3038;51.122;6.840;2023-08-06T01:57:17;100033.69;;;15.79;94.21
6020;BME280;3038;51.122;6.840;2023-08-06T01:59:43;100035.94;;;15.82;94.08
6020;BME280;3038;51.122;6.840;2023-08-06T02:02:09;100032.41;;;15.88;94.22
6020;BME280;3038;51.122;6.840;2023-08-06T02:04:34;100026.66;;;15.91;94.05
6020;BME280;3038;51.122;6.840;2023-08-06T02:07:00;100022.75;;;15.87;94.14
6020;BME280;3038;51.122;6.840;2023-08-06T02:09:25;100020.66;;;15.89;93.63
6020;BME280;3038;51.122;6.840;2023-08-06T02:11:50;100019.63;;;15.90;94.14
6020;BME280;3038;51.122;6.840;2023-08-06T02:14:16;100022.31;;;15.90;93.69
6020;BME280;3038;51.122;6.840;2023-08-06T02:16:42;100029.13;;;15.86;94.18
6020;BME280;3038;51.122;6.840;2023-08-06T02:19:07;100026.28;;;15.81;94.13
6020;BME280;3038;51.122;6.840;2023-08-06T02:21:33;100020.91;;;15.81;94.56
6020;BME280;3038;51.122;6.840;2023-08-06T02:23:58;100020.91;;;15.81;94.64
6020;BME280;3038;51.122;6.840;2023-08-06T02:26:24;100019.88;;;15.76;94.47
6020;BME280;3038;51.122;6.840;2023-08-06T02:28:49;100017.06;;;15.64;94.97
6020;BME280;3038;51.122;6.840;2023-08-06T02:31:14;100014.97;;;15.59;95.32
6020;BME280;3038;51.122;6.840;2023-08-06T02:33:40;100012.91;;;15.55;95.43
6020;BME280;3038;51.122;6.840;2023-08-06T02:36:05;100015.41;;;15.50;95.24
6020;BME280;3038;51.122;6.840;2023-08-06T02:38:32;100010.06;;;15.50;95.50
6020;BME280;3038;51.122;6.840;2023-08-06T02:40:57;100014.38;;;15.51;95.35
6020;BME280;3038;51.122;6.840;2023-08-06T02:43:23;100012.13;;;15.48;95.71
6020;BME280;3038;51.122;6.840;2023-08-06T02:45:48;100014.59;;;15.49;95.64
6020;BME280;3038;51.122;6.840;2023-08-06T02:48:13;100002.84;;;15.50;96.20
6020;BME280;3038;51.122;6.840;2023-08-06T02:50:42;100001.63;;;15.53;95.91
6020;BME280;3038;51.122;6.840;2023-08-06T02:53:08;100004.28;;;15.53;96.21
6020;BME280;3038;51.122;6.840;2023-08-06T02:55:34;100002.00;;;15.56;95.94
6020;BME280;3038;51.122;6.840;2023-08-06T02:58:02;99994.78;;;15.57;96.40
6020;BME280;3038;51.122;6.840;2023-08-06T03:00:28;99993.56;;;15.59;96.15
6020;BME280;3038;51.122;6.840;2023-08-06T03:02:53;99988.63;;;15.63;96.30
6020;BME280;3038;51.122;6.840;2023-08-06T03:05:19;99989.84;;;15.60;96.17
6020;BME280;3038;51.122;6.840;2023-08-06T03:07:44;99989.47;;;15.63;96.31
6020;BME280;3038;51.122;6.840;2023-08-06T03:10:10;99984.31;;;15.68;96.10
6020;BME280;3038;51.122;6.840;2023-08-06T03:12:36;99981.41;;;15.70;96.22
6020;BME280;3038;51.122;6.840;2023-08-06T03:15:01;99982.03;;;15.65;96.25
6020;BME280;3038;51.122;6.840;2023-08-06T03:17:26;99974.00;;;15.65;96.06
6020;BME280;3038;51.122;6.840;2023-08-06T03:19:52;99978.53;;;15.65;96.44
6020;BME280;3038;51.122;6.840;2023-08-06T03:22:17;99974.84;;;15.66;96.39
6020;BME280;3038;51.122;6.840;2023-08-06T03:24:42;99973.78;;;15.74;95.99
6020;BME280;3038;51.122;6.840;2023-08-06T03:27:08;99973.56;;;15.75;95.90
6020;BME280;3038;51.122;6.840;2023-08-06T03:29:33;99974.78;;;15.79;95.81
6020;BME280;3038;51.122;6.840;2023-08-06T03:31:58;99966.16;;;15.77;95.77
6020;BME280;3038;51.122;6.840;2023-08-06T03:34:24;99978.31;;;15.73;95.73
6020;BME280;3038;51.122;6.840;2023-08-06T03:36:49;99972.97;;;15.73;96.59
6020;BME280;3038;51.122;6.840;2023-08-06T03:39:15;99969.03;;;15.76;95.87
6020;BME280;3038;51.122;6.840;2023-08-06T03:41:40;99967.19;;;15.76;95.71
6020;BME280;3038;51.122;6.840;2023-08-06T03:44:05;99977.06;;;15.82;95.65
6020;BME280;3038;51.122;6.840;2023-08-06T03:46:31;99971.50;;;15.77;95.62
6020;BME280;3038;51.122;6.840;2023-08-06T03:49:00;99977.50;;;15.73;95.82
6020;BME280;3038;51.122;6.840;2023-08-06T03:51:26;99971.75;;;15.69;96.03
6020;BME280;3038;51.122;6.840;2023-08-06T03:53:51;99968.47;;;15.67;96.46
6020;BME280;3038;51.122;6.840;2023-08-06T03:56:17;99963.72;;;15.69;96.51
6020;BME280;3038;51.122;6.840;2023-08-06T03:58:42;99965.97;;;15.72;95.82
6020;BME280;3038;51.122;6.840;2023-08-06T04:01:07;99974.59;;;15.74;95.50
6020;BME280;3038;51.122;6.840;2023-08-06T04:03:33;99968.44;;;15.74;95.57
6020;BME280;3038;51.122;6.840;2023-08-06T04:05:59;99975.84;;;15.78;95.09
6020;BME280;3038;51.122;6.840;2023-08-06T04:08:24;99970.47;;;15.78;95.14
6020;BME280;3038;51.122;6.840;2023-08-06T04:10:51;99967.56;;;15.80;95.31
6020;BME280;3038;51.122;6.840;2023-08-06T04:13:17;99972.13;;;15.79;95.04
6020;BME280;3038;51.122;6.840;2023-08-06T04:15:42;99982.81;;;15.79;94.50
6020;BME280;3038;51.122;6.840;2023-08-06T04:18:08;99972.97;;;15.73;94.94
6020;BME280;3038;51.122;6.840;2023-08-06T04:20:33;99977.50;;;15.73;95.22
6020;BME280;3038;51.122;6.840;2023-08-06T04:22:58;99976.88;;;15.77;94.91
6020;BME280;3038;51.122;6.840;2023-08-06T04:25:24;99974.59;;;15.74;95.21
6020;BME280;3038;51.122;6.840;2023-08-06T04:27:49;99975.22;;;15.76;95.40
6020;BME280;3038;51.122;6.840;2023-08-06T04:30:15;99973.78;;;15.74;95.58
6020;BME280;3038;51.122;6.840;2023-08-06T04:32:40;99972.97;;;15.73;96.04
6020;BME280;3038;51.122;6.840;2023-08-06T04:35:06;99977.09;;;15.69;96.88
6020;BME280;3038;51.122;6.840;2023-08-06T04:37:32;99976.69;;;15.65;97.14
6020;BME280;3038;51.122;6.840;2023-08-06T04:39:57;99966.00;;;15.59;97.77
6020;BME280;3038;51.122;6.840;2023-08-06T04:42:23;99971.56;;;15.64;98.13
6020;BME280;3038;51.122;6.840;2023-08-06T04:44:48;99971.75;;;15.56;98.44
6020;BME280;3038;51.122;6.840;2023-08-06T04:47:13;99968.88;;;15.57;99.04
6020;BME280;3038;51.122;6.840;2023-08-06T04:49:39;99974.00;;;15.59;98.96
6020;BME280;3038;51.122;6.840;2023-08-06T04:52:05;99977.72;;;15.58;99.90
6020;BME280;3038;51.122;6.840;2023-08-06T04:54:31;99975.06;;;15.58;99.95
6020;BME280;3038;51.122;6.840;2023-08-06T04:56:57;99976.28;;;15.62;100.00
6020;BME280;3038;51.122;6.840;2023-08-06T04:59:22;99978.53;;;15.58;100.00
6020;BME280;3038;51.122;6.840;2023-08-06T05:01:47;99975.44;;;15.61;100.00
6020;BME280;3038;51.122;6.840;2023-08-06T05:04:13;99981.22;;;15.58;100.00
6020;BME280;3038;51.122;6.840;2023-08-06T05:06:38;99975.06;;;15.58;100.00
6020;BME280;3038;51.122;6.840;2023-08-06T05:09:04;99982.03;;;15.59;100.00
6020;BME280;3038;51.122;6.840;2023-08-06T05:11:30;99988.22;;;15.66;100.00
6020;BME280;3038;51.122;6.840;2023-08-06T05:13:55;99989.03;;;15.73;100.00
6020;BME280;3038;51.122;6.840;2023-08-06T05:16:21;99982.44;;;15.69;100.00
6020;BME280;3038;51.122;6.840;2023-08-06T05:18:46;99983.69;;;15.73;100.00
6020;BME280;3038;51.122;6.840;2023-08-06T05:21:11;99994.97;;;15.75;99.55
6020;BME280;3038;51.122;6.840;2023-08-06T05:23:37;99988.63;;;15.76;99.66
6020;BME280;3038;51.122;6.840;2023-08-06T05:26:02;99984.03;;;15.83;99.87
6020;BME280;3038;51.122;6.840;2023-08-06T05:28:28;99988.16;;;15.86;99.08
6020;BME280;3038;51.122;6.840;2023-08-06T05:30:53;99986.13;;;15.81;99.52
6020;BME280;3038;51.122;6.840;2023-08-06T05:33:18;99990.44;;;15.82;99.67
6020;BME280;3038;51.122;6.840;2023-08-06T05:35:44;99986.28;;;15.93;99.77
6020;BME280;3038;51.122;6.840;2023-08-06T05:38:09;99994.88;;;16.02;99.46
6020;BME280;3038;51.122;6.840;2023-08-06T05:40:34;99996.47;;;16.09;98.40
6020;BME280;3038;51.122;6.840;2023-08-06T05:43:00;99992.97;;;16.09;98.07
6020;BME280;3038;51.122;6.840;2023-08-06T05:45:25;99993.38;;;16.12;97.82
6020;BME280;3038;51.122;6.840;2023-08-06T05:47:51;100002.81;;;16.22;97.64
6020;BME280;3038;51.122;6.840;2023-08-06T05:50:17;99998.28;;;16.22;97.89
6020;BME280;3038;51.122;6.840;2023-08-06T05:52:42;100006.91;;;16.24;97.37
6020;BME280;3038;51.122;6.840;2023-08-06T05:55:08;100009.59;;;16.24;96.71
6020;BME280;3038;51.122;6.840;2023-08-06T05:57:33;99999.91;;;16.23;96.95
6020;BME280;3038;51.122;6.840;2023-08-06T05:59:59;100000.53;;;16.25;97.30
6020;BME280;3038;51.122;6.840;2023-08-06T06:02:24;99997.75;;;16.38;96.34
6020;BME280;3038;51.122;6.840;2023-08-06T06:04:49;100006.19;;;16.42;96.17
6020;BME280;3038;51.122;6.840;2023-08-06T06:07:15;100000.13;;;16.53;95.73
6020;BME280;3038;51.122;6.840;2023-08-06T06:09:40;100005.81;;;16.70;95.90
6020;BME280;3038;51.122;6.840;2023-08-06T06:12:06;99998.53;;;16.84;94.59
6020;BME280;3038;51.122;6.840;2023-08-06T06:14:32;100002.19;;;16.89;94.22
6020;BME280;3038;51.122;6.840;2023-08-06T06:16:57;100011.00;;;16.96;93.37
6020;BME280;3038;51.122;6.840;2023-08-06T06:19:22;100010.56;;;17.00;94.34
6020;BME280;3038;51.122;6.840;2023-08-06T06:21:48;100010.56;;;17.00;93.53
6020;BME280;3038;51.122;6.840;2023-08-06T06:24:13;100012.47;;;17.17;93.65
6020;BME280;3038;51.122;6.840;2023-08-06T06:26:38;100013.69;;;17.40;93.80
6020;BME280;3038;51.122;6.840;2023-08-06T06:29:04;100024.03;;;17.61;92.39
6020;BME280;3038;51.122;6.840;2023-08-06T06:31:29;100021.91;;;17.63;91.25
6020;BME280;3038;51.122;6.840;2023-08-06T06:33:55;100024.03;;;17.61;90.54
6020;BME280;3038;51.122;6.840;2023-08-06T06:36:20;100019.91;;;17.59;90.41
6020;BME280;3038;51.122;6.840;2023-08-06T06:38:46;100026.19;;;17.71;90.63
6020;BME280;3038;51.122;6.840;2023-08-06T06:41:11;100030.69;;;17.95;90.42
6020;BME280;3038;51.122;6.840;2023-08-06T06:43:37;100027.75;;;17.97;87.85
6020;BME280;3038;51.122;6.840;2023-08-06T06:46:03;100028.66;;;18.09;89.12
6020;BME280;3038;51.122;6.840;2023-08-06T06:48:31;100029.44;;;18.28;88.09
6020;BME280;3038;51.122;6.840;2023-08-06T06:50:57;100019.88;;;18.32;88.26
6020;BME280;3038;51.122;6.840;2023-08-06T06:53:22;100030.91;;;18.42;88.58
6020;BME280;3038;51.122;6.840;2023-08-06T06:55:55;100028.00;;;18.56;88.18
6020;BME280;3038;51.122;6.840;2023-08-06T06:58:20;100022.78;;;18.61;86.96
6020;BME280;3038;51.122;6.840;2023-08-06T07:00:48;100034.19;;;18.74;86.76
6020;BME280;3038;51.122;6.840;2023-08-06T07:03:15;100038.88;;;18.79;86.31
6020;BME280;3038;51.122;6.840;2023-08-06T07:05:40;100037.81;;;18.80;86.62
6020;BME280;3038;51.122;6.840;2023-08-06T07:08:05;100040.63;;;18.85;86.45
6020;BME280;3038;51.122;6.840;2023-08-06T07:10:31;100039.84;;;18.96;85.43
6020;BME280;3038;51.122;6.840;2023-08-06T07:12:56;100036.84;;;19.16;85.06
6020;BME280;3038;51.122;6.840;2023-08-06T07:15:24;100034.84;;;19.23;84.89
6020;BME280;3038;51.122;6.840;2023-08-06T07:17:49;100042.31;;;19.33;83.97
6020;BME280;3038;51.122;6.840;2023-08-06T07:20:15;100042.66;;;19.02;83.25
6020;BME280;3038;51.122;6.840;2023-08-06T07:22:40;100035.59;;;18.77;83.63
6020;BME280;3038;51.122;6.840;2023-08-06T07:25:06;100035.47;;;18.72;83.75
6020;BME280;3038;51.122;6.840;2023-08-06T07:27:32;100038.06;;;18.48;84.54
6020;BME280;3038;51.122;6.840;2023-08-06T07:29:58;100043.19;;;18.50;85.32
6020;BME280;3038;51.122;6.840;2023-08-06T07:32:23;100045.00;;;18.68;85.09
6020;BME280;3038;51.122;6.840;2023-08-06T07:34:49;100049.31;;;18.87;83.87
6020;BME280;3038;51.122;6.840;2023-08-06T07:37:14;100050.03;;;19.18;83.43
6020;BME280;3038;51.122;6.840;2023-08-06T07:39:40;100045.59;;;19.23;82.12
6020;BME280;3038;51.122;6.840;2023-08-06T07:42:06;100046.19;;;19.02;82.95
6020;BME280;3038;51.122;6.840;2023-08-06T07:44:32;100050.13;;;18.88;82.69
6020;BME280;3038;51.122;6.840;2023-08-06T07:46:57;100045.53;;;18.77;82.11
6020;BME280;3038;51.122;6.840;2023-08-06T07:49:23;100042.19;;;18.63;83.24
6020;BME280;3038;51.122;6.840;2023-08-06T07:51:49;100043.56;;;18.54;85.26
6020;BME280;3038;51.122;6.840;2023-08-06T07:54:16;100047.84;;;18.43;86.00
6020;BME280;3038;51.122;6.840;2023-08-06T07:56:42;100051.22;;;18.38;86.11
6020;BME280;3038;51.122;6.840;2023-08-06T07:59:07;100052.13;;;18.32;85.55
6020;BME280;3038;51.122;6.840;2023-08-06T08:01:32;100054.22;;;18.30;86.65
6020;BME280;3038;51.122;6.840;2023-08-06T08:03:58;100056.38;;;18.21;87.92
6020;BME280;3038;51.122;6.840;2023-08-06T08:06:24;100058.88;;;18.05;88.63
6020;BME280;3038;51.122;6.840;2023-08-06T08:08:49;100067.91;;;17.92;88.98
6020;BME280;3038;51.122;6.840;2023-08-06T08:11:15;100067.22;;;17.78;90.38
6020;BME280;3038;51.122;6.840;2023-08-06T08:13:41;100064.34;;;17.80;90.87
6020;BME280;3038;51.122;6.840;2023-08-06T08:16:06;100061.56;;;17.86;90.46
6020;BME280;3038;51.122;6.840;2023-08-06T08:18:32;100070.81;;;17.90;90.18
6020;BME280;3038;51.122;6.840;2023-08-06T08:20:57;100071.66;;;17.91;90.26
6020;BME280;3038;51.122;6.840;2023-08-06T08:23:23;100072.91;;;17.88;89.40
6020;BME280;3038;51.122;6.840;2023-08-06T08:25:48;100074.03;;;17.99;89.32
6020;BME280;3038;51.122;6.840;2023-08-06T08:28:13;100080.81;;;18.02;89.06
6020;BME280;3038;51.122;6.840;2023-08-06T08:30:40;100078.50;;;18.05;89.92
6020;BME280;3038;51.122;6.840;2023-08-06T08:33:06;100081.72;;;17.95;89.44
6020;BME280;3038;51.122;6.840;2023-08-06T08:35:33;100080.66;;;17.96;89.58
6020;BME280;3038;51.122;6.840;2023-08-06T08:37:58;100079.69;;;18.09;89.18
6020;BME280;3038;51.122;6.840;2023-08-06T08:40:28;100083.63;;;18.25;89.02
6020;BME280;3038;51.122;6.840;2023-08-06T08:42:55;100081.91;;;18.31;87.91
6020;BME280;3038;51.122;6.840;2023-08-06T08:45:22;100087.03;;;18.32;87.96
6020;BME280;3038;51.122;6.840;2023-08-06T08:47:51;100082.13;;;18.47;89.07
6020;BME280;3038;51.122;6.840;2023-08-06T08:50:17;100087.78;;;18.58;88.07
6020;BME280;3038;51.122;6.840;2023-08-06T08:52:43;100087.72;;;18.46;87.22
6020;BME280;3038;51.122;6.840;2023-08-06T08:55:11;100091.75;;;18.37;86.70
6020;BME280;3038;51.122;6.840;2023-08-06T08:57:37;100085.38;;;18.49;86.98
6020;BME280;3038;51.122;6.840;2023-08-06T09:00:03;100095.97;;;18.63;86.14
6020;BME280;3038;51.122;6.840;2023-08-06T09:02:28;100098.34;;;19.01;85.59
6020;BME280;3038;51.122;6.840;2023-08-06T09:04:58;100101.66;;;19.26;84.08
6020;BME280;3038;51.122;6.840;2023-08-06T09:07:32;100100.19;;;19.66;83.46
6020;BME280;3038;51.122;6.840;2023-08-06T09:10:02;100106.50;;;19.95;83.62
6020;BME280;3038;51.122;6.840;2023-08-06T09:12:29;100107.19;;;20.14;82.50
6020;BME280;3038;51.122;6.840;2023-08-06T09:14:54;100108.03;;;20.02;81.01
6020;BME280;3038;51.122;6.840;2023-08-06T09:17:19;100105.78;;;19.99;81.17
6020;BME280;3038;51.122;6.840;2023-08-06T09:19:46;100112.34;;;20.03;80.62
6020;BME280;3038;51.122;6.840;2023-08-06T09:22:13;100102.19;;;19.94;79.16
6020;BME280;3038;51.122;6.840;2023-08-06T09:24:41;100105.44;;;19.96;79.54
6020;BME280;3038;51.122;6.840;2023-08-06T09:27:11;100107.44;;;20.00;78.17
6020;BME280;3038;51.122;6.840;2023-08-06T09:29:43;100101.94;;;19.72;80.78
6020;BME280;3038;51.122;6.840;2023-08-06T09:32:11;100115.94;;;19.39;81.13
6020;BME280;3038;51.122;6.840;2023-08-06T09:34:39;100115.56;;;19.12;81.87
6020;BME280;3038;51.122;6.840;2023-08-06T09:37:04;100118.00;;;19.02;83.56
6020;BME280;3038;51.122;6.840;2023-08-06T09:39:30;100129.75;;;19.31;82.51
6020;BME280;3038;51.122;6.840;2023-08-06T09:42:00;100119.97;;;19.71;80.71
6020;BME280;3038;51.122;6.840;2023-08-06T09:44:28;100128.19;;;20.40;79.99
6020;BME280;3038;51.122;6.840;2023-08-06T09:47:02;100145.41;;;20.63;78.43
6020;BME280;3038;51.122;6.840;2023-08-06T09:49:40;100137.53;;;19.86;79.56
6020;BME280;3038;51.122;6.840;2023-08-06T09:52:13;100161.00;;;18.90;83.17
6020;BME280;3038;51.122;6.840;2023-08-06T09:54:40;100163.78;;;17.91;87.22
6020;BME280;3038;51.122;6.840;2023-08-06T09:57:08;100169.06;;;17.23;92.07
6020;BME280;3038;51.122;6.840;2023-08-06T09:59:34;100179.00;;;16.78;94.42
6020;BME280;3038;51.122;6.840;2023-08-06T10:02:00;100171.28;;;16.50;97.33
6020;BME280;3038;51.122;6.840;2023-08-06T10:04:29;100172.13;;;16.37;98.11
6020;BME280;3038;51.122;6.840;2023-08-06T10:06:54;100178.78;;;16.21;99.83
6020;BME280;3038;51.122;6.840;2023-08-06T10:09:19;100181.69;;;16.13;100.00
6020;BME280;3038;51.122;6.840;2023-08-06T10:11:50;100177.59;;;15.97;99.16
6020;BME280;3038;51.122;6.840;2023-08-06T10:14:23;100186.88;;;15.81;100.00
6020;BME280;3038;51.122;6.840;2023-08-06T10:16:50;100174.31;;;15.75;100.00
6020;BME280;3038;51.122;6.840;2023-08-06T10:19:16;100189.97;;;15.72;100.00
6020;BME280;3038;51.122;6.840;2023-08-06T10:22:15;100191.00;;;15.64;100.00
6020;BME280;3038;51.122;6.840;2023-08-06T10:24:55;100191.97;;;15.56;100.00
6020;BME280;3038;51.122;6.840;2023-08-06T10:27:33;100186.63;;;15.56;100.00
6020;BME280;3038;51.122;6.840;2023-08-06T10:30:24;100197.75;;;15.60;100.00
6020;BME280;3038;51.122;6.840;2023-08-06T10:32:51;100205.84;;;15.66;100.00
6020;BME280;3038;51.122;6.840;2023-08-06T10:35:47;100199.44;;;15.67;100.00
6020;BME280;3038;51.122;6.840;2023-08-06T10:40:49;100214.00;;;15.52;100.00
6020;BME280;3038;51.122;6.840;2023-08-06T10:43:32;100219.53;;;15.30;100.00
6020;BME280;3038;51.122;6.840;2023-08-06T10:45:59;100220.97;;;15.20;100.00
6020;BME280;3038;51.122;6.840;2023-08-06T10:48:38;100227.94;;;15.14;100.00
6020;BME280;3038;51.122;6.840;2023-08-06T10:51:08;100234.50;;;15.05;100.00
6020;BME280;3038;51.122;6.840;2023-08-06T10:53:34;100240.44;;;15.00;100.00
6020;BME280;3038;51.122;6.840;2023-08-06T10:56:00;100241.25;;;15.01;100.00
6020;BME280;3038;51.122;6.840;2023-08-06T10:58:25;100244.38;;;15.04;100.00
6020;BME280;3038;51.122;6.840;2023-08-06T11:00:51;100260.03;;;15.14;100.00
6020;BME280;3038;51.122;6.840;2023-08-06T11:03:17;100259.22;;;15.20;100.00
6020;BME280;3038;51.122;6.840;2023-08-06T11:05:48;100250.00;;;15.29;100.00
6020;BME280;3038;51.122;6.840;2023-08-06T11:08:25;100250.81;;;15.36;100.00
6020;BME280;3038;51.122;6.840;2023-08-06T11:10:50;100252.47;;;15.37;100.00
6020;BME280;3038;51.122;6.840;2023-08-06T11:13:19;100257.41;;;15.40;100.00
6020;BME280;3038;51.122;6.840;2023-08-06T11:15:45;100266.03;;;15.29;100.00
6020;BME280;3038;51.122;6.840;2023-08-06T11:18:10;100263.91;;;15.11;100.00
6020;BME280;3038;51.122;6.840;2023-08-06T11:20:37;100266.38;;;15.06;100.00
6020;BME280;3038;51.122;6.840;2023-08-06T11:23:03;100275.78;;;14.96;100.00
6020;BME280;3038;51.122;6.840;2023-08-06T11:25:29;100260.56;;;14.89;100.00
6020;BME280;3038;51.122;6.840;2023-08-06T11:27:55;100268.53;;;14.83;100.00
6020;BME280;3038;51.122;6.840;2023-08-06T11:30:20;100276.53;;;14.83;100.00
6020;BME280;3038;51.122;6.840;2023-08-06T11:32:46;100274.91;;;14.82;100.00
6020;BME280;3038;51.122;6.840;2023-08-06T11:35:12;100269.53;;;14.75;100.00
6020;BME280;3038;51.122;6.840;2023-08-06T11:37:39;100270.75;;;14.79;100.00
6020;BME280;3038;51.122;6.840;2023-08-06T11:40:09;100284.53;;;14.76;100.00
6020;BME280;3038;51.122;6.840;2023-08-06T11:42:36;100288.84;;;14.77;100.00
6020;BME280;3038;51.122;6.840;2023-08-06T11:45:02;100289.72;;;14.84;100.00
6020;BME280;3038;51.122;6.840;2023-08-06T11:47:28;100290.19;;;14.95;100.00
6020;BME280;3038;51.122;6.840;2023-08-06T11:49:54;100288.75;;;14.99;100.00
6020;BME280;3038;51.122;6.840;2023-08-06T11:52:24;100296.00;;;15.05;100.00
6020;BME280;3038;51.122;6.840;2023-08-06T11:55:02;100286.53;;;15.09;100.00
6020;BME280;3038;51.122;6.840;2023-08-06T11:57:32;100293.16;;;15.26;100.00
6020;BME280;3038;51.122;6.840;2023-08-06T12:00:07;100297.31;;;15.35;98.88
6020;BME280;3038;51.122;6.840;2023-08-06T12:02:34;100305.56;;;15.40;97.82
6020;BME280;3038;51.122;6.840;2023-08-06T12:05:13;100299.41;;;15.47;95.87
6020;BME280;3038;51.122;6.840;2023-08-06T12:07:43;100304.34;;;15.56;97.13
6020;BME280;3038;51.122;6.840;2023-08-06T12:10:33;100314.91;;;15.71;94.54
6020;BME280;3038;51.122;6.840;2023-08-06T12:12:59;100309.16;;;15.74;95.40
6020;BME280;3038;51.122;6.840;2023-08-06T12:15:25;100307.53;;;15.80;95.50
6020;BME280;3038;51.122;6.840;2023-08-06T12:17:51;100317.63;;;15.84;94.06
6020;BME280;3038;51.122;6.840;2023-08-06T12:20:16;100314.38;;;15.96;93.90
6020;BME280;3038;51.122;6.840;2023-08-06T12:22:42;100312.91;;;16.00;93.76
6020;BME280;3038;51.122;6.840;2023-08-06T12:25:09;100313.94;;;15.99;93.59
6020;BME280;3038;51.122;6.840;2023-08-06T12:27:38;100329.19;;;15.91;93.56
6020;BME280;3038;51.122;6.840;2023-08-06T12:30:04;100327.94;;;15.94;94.05
6020;BME280;3038;51.122;6.840;2023-08-06T12:32:30;100320.94;;;15.93;92.58
6020;BME280;3038;51.122;6.840;2023-08-06T12:34:56;100331.84;;;15.91;93.37
6020;BME280;3038;51.122;6.840;2023-08-06T12:37:21;100325.06;;;15.96;93.37
6020;BME280;3038;51.122;6.840;2023-08-06T12:39:47;100344.41;;;15.98;92.71
6020;BME280;3038;51.122;6.840;2023-08-06T12:42:12;100338.84;;;15.92;92.84
6020;BME280;3038;51.122;6.840;2023-08-06T12:44:38;100340.28;;;15.95;93.50
6020;BME280;3038;51.122;6.840;2023-08-06T12:47:03;100348.94;;;15.90;92.71
6020;BME280;3038;51.122;6.840;2023-08-06T12:49:28;100348.31;;;15.88;93.05
6020;BME280;3038;51.122;6.840;2023-08-06T12:51:55;100343.59;;;15.97;92.49
6020;BME280;3038;51.122;6.840;2023-08-06T12:54:22;100347.50;;;15.94;92.30
6020;BME280;3038;51.122;6.840;2023-08-06T12:56:48;100358.03;;;15.96;92.73
6020;BME280;3038;51.122;6.840;2023-08-06T12:59:14;100364.44;;;16.15;92.51
6020;BME280;3038;51.122;6.840;2023-08-06T13:01:40;100361.53;;;16.23;90.94
6020;BME280;3038;51.122;6.840;2023-08-06T13:04:06;100374.94;;;16.36;89.79
6020;BME280;3038;51.122;6.840;2023-08-06T13:06:31;100359.06;;;16.48;90.41
6020;BME280;3038;51.122;6.840;2023-08-06T13:09:01;100367.72;;;16.57;89.29
6020;BME280;3038;51.122;6.840;2023-08-06T13:11:27;100371.00;;;16.65;88.96
6020;BME280;3038;51.122;6.840;2023-08-06T13:13:52;100377.84;;;16.75;88.80
6020;BME280;3038;51.122;6.840;2023-08-06T13:16:17;100388.94;;;16.91;86.91
6020;BME280;3038;51.122;6.840;2023-08-06T13:18:43;100388.94;;;16.91;86.72